< Typhoon 201618 2016 Season Typhoon 201620 >
Typhoon 201619 (AERE)
General InformationTrack Information on Google MapsDetailed Wind InformationForecast History on Google MapsAccess Analytics MapList of All Images || NewsDisaster Info.WeblogTrackbackTyphoon FrontTwiphoonTyphoon Now!Typhoon ImaginationDisaster Info. XMLResourceGoogle EarthGE AnimationAtom FeedGeoJSON
Detalied Best Track (Time Zone = UTC)
Year Month Day Hour Lat. Long. Pressure (hPa) Wind (kt) Class Image Chart
2016 10 4 12 19.2 130.0 1004 0 2 Image Chart
2016 10 4 18 19.2 127.8 1002 0 2 Image Chart
2016 10 5 00 19.0 126.5 1004 0 2 Image Chart
2016 10 5 06 18.9 125.5 1004 0 2 Image Chart
2016 10 5 12 19.5 123.8 1002 0 2 Image Chart
2016 10 5 18 20.1 122.1 998 35 3 Image Chart
2016 10 6 00 20.6 120.5 998 35 3 Image Chart
2016 10 6 06 20.7 119.0 998 35 3 Image Chart
2016 10 6 12 20.6 117.8 994 40 3 Image Chart
2016 10 6 18 20.6 117.2 994 40 3 Image Chart
2016 10 7 00 20.4 116.4 992 40 3 Image Chart
2016 10 7 06 20.7 116.0 985 50 4 Image Chart
2016 10 7 12 21.0 115.9 980 55 4 Image Chart
2016 10 7 18 21.2 115.9 975 60 4 Image Chart
2016 10 8 00 21.3 116.1 980 55 4 Image Chart
2016 10 8 06 21.3 116.3 985 50 4 Image Chart
2016 10 8 12 21.6 116.9 990 45 3 Image Chart
2016 10 8 18 21.8 117.2 992 40 3 Image Chart
2016 10 9 00 21.6 117.4 996 40 3 Image Chart
2016 10 9 06 21.3 117.8 996 40 3 Image Chart
2016 10 9 12 21.6 117.9 998 35 3 Image Chart
2016 10 9 18 21.8 117.9 998 35 3 Image Chart
2016 10 10 00 22.1 118.0 1004 0 2 Image Chart
Japan Meteorological Agency Best Track Data | Correction Date : 2016-11-22
< Typhoon 201618 2016 Season Typhoon 201620 >

Help